createdAt,value
2023-02-12T00:00:00.278Z,12.73
2023-02-12T00:04:53.561Z,11.68
2023-02-12T00:09:47.278Z,11.85
2023-02-12T00:14:41.088Z,12.55
2023-02-12T00:19:34.747Z,12.00
2023-02-12T00:24:28.575Z,13.48
2023-02-12T00:29:22.260Z,10.88
2023-02-12T00:34:16.079Z,11.48
2023-02-12T00:39:08.937Z,12.85
2023-02-12T00:44:02.185Z,11.50
2023-02-12T00:48:55.339Z,11.27
2023-02-12T00:53:48.721Z,10.10
2023-02-12T00:58:42.248Z,9.07
2023-02-12T01:03:35.757Z,10.10
2023-02-12T01:08:28.423Z,10.70
2023-02-12T01:13:24.910Z,9.85
2023-02-12T01:18:18.972Z,10.15
2023-02-12T01:23:12.348Z,9.57
2023-02-12T01:28:07.117Z,10.48
2023-02-12T01:33:01.139Z,10.05
2023-02-12T01:37:58.124Z,9.02
2023-02-12T01:42:52.972Z,9.23
2023-02-12T01:47:46.291Z,10.48
2023-02-12T01:52:42.128Z,10.43
2023-02-12T01:57:39.469Z,11.88
2023-02-12T02:02:32.318Z,13.43
2023-02-12T02:07:25.807Z,11.65
2023-02-12T02:12:37.670Z,10.02
2023-02-12T02:17:45.382Z,9.07
2023-02-12T02:22:52.846Z,8.63
2023-02-12T02:27:55.006Z,8.77
2023-02-12T02:33:16.616Z,8.52
2023-02-12T02:38:34.952Z,10.40
2023-02-12T02:43:36.151Z,9.48
2023-02-12T02:48:47.282Z,8.13
2023-02-12T02:53:48.062Z,8.45
2023-02-12T02:58:43.600Z,9.20
2023-02-12T03:03:45.357Z,8.10
2023-02-12T03:08:54.167Z,8.38
2023-02-12T03:13:55.616Z,7.85
2023-02-12T03:19:12.898Z,6.63
2023-02-12T03:24:19.621Z,7.88
2023-02-12T03:29:13.895Z,6.88
2023-02-12T03:34:13.047Z,6.40
2023-02-12T03:39:28.867Z,6.82
2023-02-12T03:44:40.712Z,7.72
2023-02-12T03:49:39.166Z,7.38
2023-02-12T03:54:31.987Z,7.82
2023-02-12T03:59:26.073Z,7.70
2023-02-12T04:04:39.428Z,7.40
2023-02-12T04:09:52.511Z,7.97
2023-02-12T04:14:47.026Z,7.78
2023-02-12T04:20:08.669Z,7.82
2023-02-12T04:25:23.105Z,9.18
2023-02-12T04:30:36.062Z,6.32
2023-02-12T04:35:43.866Z,6.50
2023-02-12T04:40:38.788Z,7.80
2023-02-12T04:45:34.225Z,7.43
2023-02-12T04:50:28.506Z,6.55
2023-02-12T04:55:36.521Z,7.55
2023-02-12T05:00:31.259Z,9.03
2023-02-12T05:05:24.807Z,6.78
2023-02-12T05:10:18.167Z,6.93
2023-02-12T05:15:16.107Z,6.80
2023-02-12T05:20:09.809Z,6.55
2023-02-12T05:25:03.439Z,6.53
2023-02-12T05:29:57.595Z,5.95
2023-02-12T05:34:51.239Z,6.63
2023-02-12T05:39:45.259Z,6.50
2023-02-12T05:44:39.002Z,6.60
2023-02-12T05:49:31.718Z,6.95
2023-02-12T05:54:25.027Z,7.63
2023-02-12T05:59:20.735Z,6.43
2023-02-12T06:04:18.716Z,7.43
2023-02-12T06:09:13.466Z,7.50
2023-02-12T06:14:12.092Z,7.32
2023-02-12T06:19:06.684Z,6.78
2023-02-12T06:23:59.756Z,6.10
2023-02-12T06:28:53.719Z,7.32
2023-02-12T06:33:47.258Z,7.65
2023-02-12T06:38:40.520Z,7.40
2023-02-12T06:43:33.936Z,6.25
2023-02-12T06:48:27.023Z,6.30
2023-02-12T06:53:20.895Z,6.53
2023-02-12T06:58:14.326Z,5.88
2023-02-12T07:03:07.742Z,6.22
2023-02-12T07:08:02.177Z,7.55
2023-02-12T07:12:54.522Z,7.05
2023-02-12T07:17:48.474Z,7.18
2023-02-12T07:22:42.537Z,7.95
2023-02-12T07:27:39.695Z,8.35
2023-02-12T07:32:33.657Z,7.72
2023-02-12T07:37:26.798Z,7.05
2023-02-12T07:42:20.973Z,6.18
2023-02-12T07:47:16.950Z,7.65
2023-02-12T07:52:13.007Z,9.95
2023-02-12T07:57:07.311Z,8.55
2023-02-12T08:02:01.107Z,16.73
2023-02-12T08:06:55.190Z,12.85
2023-02-12T08:11:48.377Z,9.38
2023-02-12T08:16:43.041Z,9.18
2023-02-12T08:21:35.995Z,8.13
2023-02-12T08:26:34.201Z,7.63
2023-02-12T08:31:28.600Z,7.90
2023-02-12T08:36:35.837Z,14.20
2023-02-12T08:41:30.681Z,10.63
2023-02-12T08:46:25.290Z,7.03
2023-02-12T08:51:21.688Z,6.65
2023-02-12T08:56:16.948Z,8.48
2023-02-12T09:01:16.215Z,8.43
2023-02-12T09:11:32.272Z,7.80
2023-02-12T09:16:25.147Z,7.15
2023-02-12T09:21:20.178Z,7.60
2023-02-12T09:26:18.274Z,8.00
2023-02-12T09:36:31.942Z,9.00
2023-02-12T09:41:55.436Z,8.60
2023-02-12T09:47:14.575Z,8.55
2023-02-12T09:52:09.243Z,8.10
2023-02-12T09:57:03.374Z,8.93
2023-02-12T10:01:56.719Z,8.90
2023-02-12T10:07:19.772Z,9.20
2023-02-12T10:12:46.568Z,8.93
2023-02-12T10:18:24.856Z,9.48
2023-02-12T10:23:37.464Z,8.50
2023-02-12T10:28:35.956Z,8.35
2023-02-12T10:33:49.256Z,9.20
2023-02-12T10:38:45.805Z,8.73
2023-02-12T10:43:40.933Z,8.75
2023-02-12T10:48:37.528Z,10.13
2023-02-12T10:53:44.191Z,9.75
2023-02-12T10:58:54.286Z,10.20
2023-02-12T11:03:48.247Z,11.15
2023-02-12T11:08:41.763Z,11.88
2023-02-12T11:13:35.163Z,11.77
2023-02-12T11:18:33.470Z,10.65
2023-02-12T11:23:28.510Z,10.57
2023-02-12T11:28:22.899Z,11.00
2023-02-12T11:33:22.314Z,10.93
2023-02-12T11:38:24.618Z,11.70
2023-02-12T11:43:19.139Z,9.32
2023-02-12T11:48:24.920Z,12.20
2023-02-12T11:53:28.649Z,12.38
2023-02-12T11:58:24.253Z,11.30
2023-02-12T12:03:24.327Z,11.85
2023-02-12T12:08:27.610Z,11.52
2023-02-12T12:13:26.081Z,11.70
2023-02-12T12:19:17.829Z,14.35
2023-02-12T12:24:21.039Z,15.80
2023-02-12T12:29:20.966Z,20.20
2023-02-12T12:34:19.211Z,19.60
2023-02-12T12:39:26.890Z,20.47
2023-02-12T12:44:48.178Z,21.65
2023-02-12T12:50:04.768Z,20.98
2023-02-12T12:55:15.149Z,22.73
2023-02-12T13:00:34.962Z,23.05
2023-02-12T13:05:48.523Z,20.55
2023-02-12T13:10:50.112Z,19.55
2023-02-12T13:16:10.883Z,21.40
2023-02-12T13:21:30.294Z,22.15
2023-02-12T13:26:44.838Z,19.23
2023-02-12T13:31:45.221Z,23.40
2023-02-12T13:36:39.312Z,20.58
2023-02-12T13:41:33.866Z,21.17
2023-02-12T13:46:35.784Z,21.90
2023-02-12T13:51:49.753Z,22.65
2023-02-12T13:56:57.365Z,21.58
2023-02-12T14:01:51.360Z,21.98
2023-02-12T14:07:10.251Z,20.70
2023-02-12T14:12:07.197Z,22.45
2023-02-12T14:17:28.996Z,23.45
2023-02-12T14:22:27.411Z,23.95
2023-02-12T14:27:31.656Z,25.38
2023-02-12T14:32:59.071Z,24.55
2023-02-12T14:37:52.421Z,25.00
2023-02-12T14:42:55.972Z,26.75
2023-02-12T14:47:48.433Z,25.42
2023-02-12T14:52:53.481Z,26.27
2023-02-12T14:57:47.479Z,26.30
2023-02-12T15:02:42.344Z,27.42
2023-02-12T15:07:51.320Z,24.98
2023-02-12T15:17:42.856Z,25.10
2023-02-12T15:22:38.536Z,28.58
2023-02-12T15:27:31.533Z,31.58
2023-02-12T15:32:30.640Z,30.40
2023-02-12T15:37:28.235Z,31.80
2023-02-12T15:42:25.995Z,34.90
2023-02-12T15:47:24.811Z,33.92
2023-02-12T15:57:33.315Z,35.22
2023-02-12T16:02:29.607Z,37.05
2023-02-12T16:07:24.150Z,38.63
2023-02-12T16:12:20.269Z,38.60
2023-02-12T16:17:32.960Z,37.78
2023-02-12T16:22:30.203Z,41.17
2023-02-12T16:27:33.542Z,40.38
2023-02-12T16:32:44.537Z,41.97
2023-02-12T16:37:37.397Z,44.95
2023-02-12T16:42:31.369Z,43.78
2023-02-12T16:47:25.573Z,44.92
2023-02-12T16:52:21.485Z,45.40
2023-02-12T16:57:15.141Z,45.17
2023-02-12T17:02:13.471Z,47.10
2023-02-12T17:07:19.190Z,46.90
2023-02-12T17:12:12.119Z,47.78
2023-02-12T17:17:06.209Z,45.05
2023-02-12T17:21:59.444Z,46.60
2023-02-12T17:26:53.884Z,48.85
2023-02-12T17:31:47.430Z,47.28
2023-02-12T17:36:41.839Z,50.35
2023-02-12T17:41:35.611Z,60.15
2023-02-12T17:46:29.530Z,54.00
2023-02-12T17:51:23.758Z,53.88
2023-02-12T17:56:18.529Z,53.72
2023-02-12T18:01:15.372Z,52.90
2023-02-12T18:06:09.540Z,52.20
2023-02-12T18:11:06.535Z,55.40
2023-02-12T18:16:01.018Z,56.22
2023-02-12T18:20:55.034Z,61.90
2023-02-12T18:25:48.322Z,57.50
2023-02-12T18:30:43.295Z,91.28
2023-02-12T18:35:37.635Z,81.50
2023-02-12T18:40:31.831Z,71.78
2023-02-12T18:45:25.867Z,62.30
2023-02-12T18:50:19.668Z,62.45
2023-02-12T18:55:12.583Z,69.65
2023-02-12T19:00:07.404Z,74.60
2023-02-12T19:05:02.410Z,82.70
2023-02-12T19:09:56.975Z,80.88
2023-02-12T19:14:51.606Z,82.22
2023-02-12T19:19:45.254Z,75.30
2023-02-12T19:24:46.756Z,64.93
2023-02-12T19:29:39.833Z,64.32
2023-02-12T19:34:33.809Z,64.07
2023-02-12T19:39:28.331Z,66.00
2023-02-12T19:44:24.105Z,60.72
2023-02-12T19:49:22.804Z,59.55
2023-02-12T19:54:17.857Z,58.65
2023-02-12T19:59:14.638Z,57.80
2023-02-12T20:04:08.266Z,56.88
2023-02-12T20:09:01.395Z,51.55
2023-02-12T20:13:54.809Z,52.33
2023-02-12T20:18:49.704Z,54.58
2023-02-12T20:23:43.537Z,55.67
2023-02-12T20:28:37.982Z,51.17
2023-02-12T20:33:31.245Z,51.40
2023-02-12T20:38:25.362Z,56.92
2023-02-12T20:43:18.900Z,56.88
2023-02-12T20:48:12.029Z,58.58
2023-02-12T20:53:06.696Z,65.68
2023-02-12T20:58:00.298Z,66.07
2023-02-12T21:02:58.257Z,65.15
2023-02-12T21:07:52.114Z,62.30
2023-02-12T21:12:46.470Z,90.20
2023-02-12T21:17:40.185Z,111.75
2023-02-12T21:22:33.641Z,82.38
2023-02-12T21:27:27.596Z,155.63
2023-02-12T21:32:21.614Z,134.13
2023-02-12T21:37:15.651Z,72.03
2023-02-12T21:42:08.934Z,71.15
2023-02-12T21:47:01.784Z,69.13
2023-02-12T21:52:02.614Z,67.00
2023-02-12T21:56:58.982Z,66.03
2023-02-12T22:01:55.858Z,66.35
2023-02-12T22:06:50.704Z,62.58
2023-02-12T22:11:44.101Z,65.28
2023-02-12T22:16:37.756Z,65.40
2023-02-12T22:21:35.160Z,60.65
2023-02-12T22:26:29.954Z,61.30
2023-02-12T22:31:29.420Z,98.35
2023-02-12T22:36:23.858Z,69.07
2023-02-12T22:41:17.220Z,77.88
2023-02-12T22:46:10.871Z,66.80
2023-02-12T22:51:16.341Z,70.25
2023-02-12T22:56:10.761Z,66.18
2023-02-12T23:01:07.296Z,78.65
2023-02-12T23:06:05.339Z,87.90
2023-02-12T23:10:59.815Z,84.35
2023-02-12T23:15:55.555Z,82.57
2023-02-12T23:20:50.248Z,81.45
2023-02-12T23:25:44.033Z,68.43
2023-02-12T23:30:38.254Z,71.63
2023-02-12T23:35:32.965Z,66.35
2023-02-12T23:40:26.476Z,62.90
2023-02-12T23:45:21.009Z,67.68
2023-02-12T23:50:15.144Z,65.30
2023-02-12T23:55:08.246Z,67.82
